sensor_id;sensor_type;location;lat;lon;timestamp;P1;durP1;ratioP1;P2;durP2;ratioP2
7324;SDS011;3703;48.016;7.802;2023-06-26T00:01:39;6.47;;;5.83;;
7324;SDS011;3703;48.016;7.802;2023-06-26T00:04:07;6.53;;;5.80;;
7324;SDS011;3703;48.016;7.802;2023-06-26T00:06:39;7.83;;;5.73;;
7324;SDS011;3703;48.016;7.802;2023-06-26T00:09:06;6.30;;;5.07;;
7324;SDS011;3703;48.016;7.802;2023-06-26T00:11:35;6.87;;;5.83;;
7324;SDS011;3703;48.016;7.802;2023-06-26T00:14:02;7.40;;;5.80;;
7324;SDS011;3703;48.016;7.802;2023-06-26T00:16:30;6.70;;;5.73;;
7324;SDS011;3703;48.016;7.802;2023-06-26T00:18:57;6.87;;;5.57;;
7324;SDS011;3703;48.016;7.802;2023-06-26T00:21:25;6.27;;;5.63;;
7324;SDS011;3703;48.016;7.802;2023-06-26T00:23:52;6.77;;;5.77;;
7324;SDS011;3703;48.016;7.802;2023-06-26T00:26:19;6.33;;;5.20;;
7324;SDS011;3703;48.016;7.802;2023-06-26T00:28:48;6.20;;;5.27;;
7324;SDS011;3703;48.016;7.802;2023-06-26T00:31:15;8.37;;;5.80;;
7324;SDS011;3703;48.016;7.802;2023-06-26T00:33:42;6.90;;;5.83;;
7324;SDS011;3703;48.016;7.802;2023-06-26T00:36:09;6.60;;;5.37;;
7324;SDS011;3703;48.016;7.802;2023-06-26T00:38:37;6.87;;;5.53;;
7324;SDS011;3703;48.016;7.802;2023-06-26T00:41:04;7.27;;;6.07;;
7324;SDS011;3703;48.016;7.802;2023-06-26T00:43:37;6.23;;;5.60;;
7324;SDS011;3703;48.016;7.802;2023-06-26T00:46:08;8.80;;;5.90;;
7324;SDS011;3703;48.016;7.802;2023-06-26T00:48:36;7.83;;;5.60;;
7324;SDS011;3703;48.016;7.802;2023-06-26T00:51:04;7.63;;;6.30;;
7324;SDS011;3703;48.016;7.802;2023-06-26T00:53:31;7.27;;;5.93;;
7324;SDS011;3703;48.016;7.802;2023-06-26T00:55:59;7.50;;;6.03;;
7324;SDS011;3703;48.016;7.802;2023-06-26T00:58:27;7.07;;;5.40;;
7324;SDS011;3703;48.016;7.802;2023-06-26T01:00:54;7.50;;;5.80;;
7324;SDS011;3703;48.016;7.802;2023-06-26T01:03:23;6.00;;;5.40;;
7324;SDS011;3703;48.016;7.802;2023-06-26T01:05:52;6.90;;;5.83;;
7324;SDS011;3703;48.016;7.802;2023-06-26T01:08:20;7.23;;;6.17;;
7324;SDS011;3703;48.016;7.802;2023-06-26T01:10:48;6.43;;;5.70;;
7324;SDS011;3703;48.016;7.802;2023-06-26T01:13:16;6.90;;;5.63;;
7324;SDS011;3703;48.016;7.802;2023-06-26T01:15:43;7.60;;;6.10;;
7324;SDS011;3703;48.016;7.802;2023-06-26T01:18:11;6.57;;;5.73;;
7324;SDS011;3703;48.016;7.802;2023-06-26T01:20:41;6.00;;;5.40;;
7324;SDS011;3703;48.016;7.802;2023-06-26T01:23:12;7.37;;;5.90;;
7324;SDS011;3703;48.016;7.802;2023-06-26T01:25:51;6.90;;;6.17;;
7324;SDS011;3703;48.016;7.802;2023-06-26T01:28:39;6.30;;;5.57;;
7324;SDS011;3703;48.016;7.802;2023-06-26T01:31:08;8.00;;;5.77;;
7324;SDS011;3703;48.016;7.802;2023-06-26T01:33:37;7.07;;;6.37;;
7324;SDS011;3703;48.016;7.802;2023-06-26T01:36:05;7.33;;;5.97;;
7324;SDS011;3703;48.016;7.802;2023-06-26T01:38:33;9.63;;;6.27;;
7324;SDS011;3703;48.016;7.802;2023-06-26T01:41:01;9.23;;;6.63;;
7324;SDS011;3703;48.016;7.802;2023-06-26T01:43:31;6.73;;;6.03;;
7324;SDS011;3703;48.016;7.802;2023-06-26T01:46:21;7.60;;;6.20;;
7324;SDS011;3703;48.016;7.802;2023-06-26T01:48:54;7.07;;;5.97;;
7324;SDS011;3703;48.016;7.802;2023-06-26T01:51:27;7.53;;;6.27;;
7324;SDS011;3703;48.016;7.802;2023-06-26T01:54:00;6.73;;;6.03;;
7324;SDS011;3703;48.016;7.802;2023-06-26T01:56:28;7.20;;;6.40;;
7324;SDS011;3703;48.016;7.802;2023-06-26T01:58:58;8.20;;;5.97;;
7324;SDS011;3703;48.016;7.802;2023-06-26T02:01:30;7.10;;;5.97;;
7324;SDS011;3703;48.016;7.802;2023-06-26T02:03:58;7.70;;;6.03;;
7324;SDS011;3703;48.016;7.802;2023-06-26T02:06:25;6.37;;;5.70;;
7324;SDS011;3703;48.016;7.802;2023-06-26T02:08:53;8.30;;;6.40;;
7324;SDS011;3703;48.016;7.802;2023-06-26T02:11:21;7.27;;;5.87;;
7324;SDS011;3703;48.016;7.802;2023-06-26T02:13:49;6.67;;;5.53;;
7324;SDS011;3703;48.016;7.802;2023-06-26T02:16:17;7.07;;;6.30;;
7324;SDS011;3703;48.016;7.802;2023-06-26T02:18:44;6.73;;;5.90;;
7324;SDS011;3703;48.016;7.802;2023-06-26T02:21:13;6.97;;;5.60;;
7324;SDS011;3703;48.016;7.802;2023-06-26T02:23:40;7.63;;;5.57;;
7324;SDS011;3703;48.016;7.802;2023-06-26T02:26:07;6.10;;;5.50;;
7324;SDS011;3703;48.016;7.802;2023-06-26T02:28:34;6.97;;;5.83;;
7324;SDS011;3703;48.016;7.802;2023-06-26T02:31:01;8.87;;;5.80;;
7324;SDS011;3703;48.016;7.802;2023-06-26T02:33:30;7.47;;;6.60;;
7324;SDS011;3703;48.016;7.802;2023-06-26T02:35:57;8.30;;;6.20;;
7324;SDS011;3703;48.016;7.802;2023-06-26T02:38:24;7.17;;;6.00;;
7324;SDS011;3703;48.016;7.802;2023-06-26T02:40:51;7.03;;;6.30;;
7324;SDS011;3703;48.016;7.802;2023-06-26T02:43:18;8.67;;;6.23;;
7324;SDS011;3703;48.016;7.802;2023-06-26T02:45:46;8.43;;;6.63;;
7324;SDS011;3703;48.016;7.802;2023-06-26T02:48:13;8.47;;;6.27;;
7324;SDS011;3703;48.016;7.802;2023-06-26T02:50:41;6.83;;;5.90;;
7324;SDS011;3703;48.016;7.802;2023-06-26T02:53:11;8.67;;;6.67;;
7324;SDS011;3703;48.016;7.802;2023-06-26T02:55:38;8.07;;;6.63;;
7324;SDS011;3703;48.016;7.802;2023-06-26T02:58:05;7.70;;;6.23;;
7324;SDS011;3703;48.016;7.802;2023-06-26T03:00:32;8.73;;;6.57;;
7324;SDS011;3703;48.016;7.802;2023-06-26T03:02:59;8.30;;;6.50;;
7324;SDS011;3703;48.016;7.802;2023-06-26T03:05:27;7.17;;;6.30;;
7324;SDS011;3703;48.016;7.802;2023-06-26T03:07:56;6.90;;;6.00;;
7324;SDS011;3703;48.016;7.802;2023-06-26T03:10:23;7.13;;;5.97;;
7324;SDS011;3703;48.016;7.802;2023-06-26T03:12:50;7.47;;;6.20;;
7324;SDS011;3703;48.016;7.802;2023-06-26T03:15:17;9.70;;;6.80;;
7324;SDS011;3703;48.016;7.802;2023-06-26T03:17:45;6.93;;;6.23;;
7324;SDS011;3703;48.016;7.802;2023-06-26T03:20:12;8.17;;;6.27;;
7324;SDS011;3703;48.016;7.802;2023-06-26T03:22:42;9.03;;;5.93;;
7324;SDS011;3703;48.016;7.802;2023-06-26T03:25:11;7.67;;;6.53;;
7324;SDS011;3703;48.016;7.802;2023-06-26T03:27:38;8.03;;;6.40;;
7324;SDS011;3703;48.016;7.802;2023-06-26T03:30:05;10.10;;;6.53;;
7324;SDS011;3703;48.016;7.802;2023-06-26T03:32:33;8.03;;;6.20;;
7324;SDS011;3703;48.016;7.802;2023-06-26T03:35:01;8.63;;;6.37;;
7324;SDS011;3703;48.016;7.802;2023-06-26T03:37:28;7.97;;;6.60;;
7324;SDS011;3703;48.016;7.802;2023-06-26T03:39:55;7.67;;;6.33;;
7324;SDS011;3703;48.016;7.802;2023-06-26T03:42:24;7.77;;;6.03;;
7324;SDS011;3703;48.016;7.802;2023-06-26T03:44:51;9.07;;;6.37;;
7324;SDS011;3703;48.016;7.802;2023-06-26T03:47:18;9.37;;;6.30;;
7324;SDS011;3703;48.016;7.802;2023-06-26T03:49:45;8.87;;;6.00;;
7324;SDS011;3703;48.016;7.802;2023-06-26T03:52:12;8.33;;;6.13;;
7324;SDS011;3703;48.016;7.802;2023-06-26T03:54:39;7.87;;;6.27;;
7324;SDS011;3703;48.016;7.802;2023-06-26T03:57:06;9.73;;;6.53;;
7324;SDS011;3703;48.016;7.802;2023-06-26T03:59:35;8.23;;;6.53;;
7324;SDS011;3703;48.016;7.802;2023-06-26T04:02:03;7.23;;;6.10;;
7324;SDS011;3703;48.016;7.802;2023-06-26T04:04:30;9.30;;;6.43;;
7324;SDS011;3703;48.016;7.802;2023-06-26T04:06:57;8.97;;;6.23;;
7324;SDS011;3703;48.016;7.802;2023-06-26T04:09:25;11.60;;;6.33;;
7324;SDS011;3703;48.016;7.802;2023-06-26T04:11:52;14.77;;;6.70;;
7324;SDS011;3703;48.016;7.802;2023-06-26T04:14:19;7.70;;;6.43;;
7324;SDS011;3703;48.016;7.802;2023-06-26T04:16:48;10.10;;;7.03;;
7324;SDS011;3703;48.016;7.802;2023-06-26T04:19:15;8.70;;;6.10;;
7324;SDS011;3703;48.016;7.802;2023-06-26T04:21:42;8.60;;;6.77;;
7324;SDS011;3703;48.016;7.802;2023-06-26T04:24:10;7.67;;;6.30;;
7324;SDS011;3703;48.016;7.802;2023-06-26T04:26:37;9.83;;;6.30;;
7324;SDS011;3703;48.016;7.802;2023-06-26T04:29:06;7.40;;;6.23;;
7324;SDS011;3703;48.016;7.802;2023-06-26T04:31:33;9.93;;;6.00;;
7324;SDS011;3703;48.016;7.802;2023-06-26T04:34:02;6.70;;;6.00;;
7324;SDS011;3703;48.016;7.802;2023-06-26T04:36:29;8.93;;;6.30;;
7324;SDS011;3703;48.016;7.802;2023-06-26T04:38:58;7.43;;;5.73;;
7324;SDS011;3703;48.016;7.802;2023-06-26T04:41:25;6.60;;;5.90;;
7324;SDS011;3703;48.016;7.802;2023-06-26T04:43:52;7.50;;;5.60;;
7324;SDS011;3703;48.016;7.802;2023-06-26T04:46:20;7.80;;;6.23;;
7324;SDS011;3703;48.016;7.802;2023-06-26T04:48:47;6.93;;;5.77;;
7324;SDS011;3703;48.016;7.802;2023-06-26T04:51:15;6.67;;;5.60;;
7324;SDS011;3703;48.016;7.802;2023-06-26T04:53:46;7.33;;;5.47;;
7324;SDS011;3703;48.016;7.802;2023-06-26T04:56:13;8.97;;;5.90;;
7324;SDS011;3703;48.016;7.802;2023-06-26T04:58:40;7.47;;;5.60;;
7324;SDS011;3703;48.016;7.802;2023-06-26T05:01:07;7.50;;;5.50;;
7324;SDS011;3703;48.016;7.802;2023-06-26T05:03:35;7.20;;;5.87;;
7324;SDS011;3703;48.016;7.802;2023-06-26T05:06:03;7.87;;;5.60;;
7324;SDS011;3703;48.016;7.802;2023-06-26T05:08:31;8.13;;;6.10;;
7324;SDS011;3703;48.016;7.802;2023-06-26T05:10:58;6.67;;;5.90;;
7324;SDS011;3703;48.016;7.802;2023-06-26T05:13:25;7.27;;;6.03;;
7324;SDS011;3703;48.016;7.802;2023-06-26T05:15:53;7.63;;;5.97;;
7324;SDS011;3703;48.016;7.802;2023-06-26T05:18:20;6.73;;;5.90;;
7324;SDS011;3703;48.016;7.802;2023-06-26T05:20:48;6.17;;;5.57;;
7324;SDS011;3703;48.016;7.802;2023-06-26T05:23:16;7.83;;;5.57;;
7324;SDS011;3703;48.016;7.802;2023-06-26T05:25:46;8.10;;;5.87;;
7324;SDS011;3703;48.016;7.802;2023-06-26T05:28:15;11.60;;;5.90;;
7324;SDS011;3703;48.016;7.802;2023-06-26T05:30:43;7.60;;;6.00;;
7324;SDS011;3703;48.016;7.802;2023-06-26T05:33:12;5.97;;;5.37;;
7324;SDS011;3703;48.016;7.802;2023-06-26T05:35:41;6.50;;;5.87;;
7324;SDS011;3703;48.016;7.802;2023-06-26T05:38:09;7.90;;;5.93;;
7324;SDS011;3703;48.016;7.802;2023-06-26T05:40:38;9.60;;;6.30;;
7324;SDS011;3703;48.016;7.802;2023-06-26T05:43:08;6.73;;;5.47;;
7324;SDS011;3703;48.016;7.802;2023-06-26T05:45:35;7.90;;;6.33;;
7324;SDS011;3703;48.016;7.802;2023-06-26T05:48:03;8.23;;;6.10;;
7324;SDS011;3703;48.016;7.802;2023-06-26T05:50:31;6.87;;;6.13;;
7324;SDS011;3703;48.016;7.802;2023-06-26T05:52:59;7.50;;;6.07;;
7324;SDS011;3703;48.016;7.802;2023-06-26T05:55:28;6.17;;;5.37;;
7324;SDS011;3703;48.016;7.802;2023-06-26T05:57:56;7.93;;;6.07;;
7324;SDS011;3703;48.016;7.802;2023-06-26T06:00:28;9.23;;;6.30;;
7324;SDS011;3703;48.016;7.802;2023-06-26T06:02:56;6.10;;;5.50;;
7324;SDS011;3703;48.016;7.802;2023-06-26T06:05:23;8.63;;;6.17;;
7324;SDS011;3703;48.016;7.802;2023-06-26T06:07:50;7.60;;;6.10;;
7324;SDS011;3703;48.016;7.802;2023-06-26T06:10:17;6.83;;;5.70;;
7324;SDS011;3703;48.016;7.802;2023-06-26T06:12:45;8.03;;;5.97;;
7324;SDS011;3703;48.016;7.802;2023-06-26T06:15:12;7.93;;;6.17;;
7324;SDS011;3703;48.016;7.802;2023-06-26T06:17:40;7.40;;;5.63;;
7324;SDS011;3703;48.016;7.802;2023-06-26T06:20:08;6.93;;;5.77;;
7324;SDS011;3703;48.016;7.802;2023-06-26T06:22:36;7.00;;;5.93;;
7324;SDS011;3703;48.016;7.802;2023-06-26T06:25:03;7.03;;;5.70;;
7324;SDS011;3703;48.016;7.802;2023-06-26T06:27:32;6.60;;;5.77;;
7324;SDS011;3703;48.016;7.802;2023-06-26T06:29:59;8.70;;;5.83;;
7324;SDS011;3703;48.016;7.802;2023-06-26T06:32:26;7.60;;;5.37;;
7324;SDS011;3703;48.016;7.802;2023-06-26T06:34:54;7.70;;;5.53;;
7324;SDS011;3703;48.016;7.802;2023-06-26T06:37:22;9.83;;;5.60;;
7324;SDS011;3703;48.016;7.802;2023-06-26T06:39:49;6.17;;;5.23;;
7324;SDS011;3703;48.016;7.802;2023-06-26T06:42:16;9.13;;;5.47;;
7324;SDS011;3703;48.016;7.802;2023-06-26T06:44:43;7.77;;;5.50;;
7324;SDS011;3703;48.016;7.802;2023-06-26T06:47:10;7.07;;;5.30;;
7324;SDS011;3703;48.016;7.802;2023-06-26T06:49:38;8.57;;;5.70;;
7324;SDS011;3703;48.016;7.802;2023-06-26T06:52:06;8.33;;;6.00;;
7324;SDS011;3703;48.016;7.802;2023-06-26T06:54:46;6.83;;;6.13;;
7324;SDS011;3703;48.016;7.802;2023-06-26T06:57:19;6.60;;;5.57;;
7324;SDS011;3703;48.016;7.802;2023-06-26T06:59:46;9.57;;;6.80;;
7324;SDS011;3703;48.016;7.802;2023-06-26T07:02:14;11.77;;;6.13;;
7324;SDS011;3703;48.016;7.802;2023-06-26T07:04:43;6.10;;;5.50;;
7324;SDS011;3703;48.016;7.802;2023-06-26T07:07:11;6.20;;;5.37;;
7324;SDS011;3703;48.016;7.802;2023-06-26T07:09:39;6.87;;;5.53;;
7324;SDS011;3703;48.016;7.802;2023-06-26T07:12:07;7.60;;;5.80;;
7324;SDS011;3703;48.016;7.802;2023-06-26T07:14:35;8.23;;;5.70;;
7324;SDS011;3703;48.016;7.802;2023-06-26T07:17:02;8.67;;;5.77;;
7324;SDS011;3703;48.016;7.802;2023-06-26T07:19:30;8.70;;;5.67;;
7324;SDS011;3703;48.016;7.802;2023-06-26T07:21:57;7.10;;;5.40;;
7324;SDS011;3703;48.016;7.802;2023-06-26T07:24:26;6.93;;;5.57;;
7324;SDS011;3703;48.016;7.802;2023-06-26T07:26:53;6.93;;;5.43;;
7324;SDS011;3703;48.016;7.802;2023-06-26T07:29:20;7.07;;;5.67;;
7324;SDS011;3703;48.016;7.802;2023-06-26T07:31:48;8.00;;;5.77;;
7324;SDS011;3703;48.016;7.802;2023-06-26T07:34:15;6.10;;;5.50;;
7324;SDS011;3703;48.016;7.802;2023-06-26T07:36:42;6.57;;;5.83;;
7324;SDS011;3703;48.016;7.802;2023-06-26T07:39:09;16.77;;;6.07;;
7324;SDS011;3703;48.016;7.802;2023-06-26T07:41:38;8.90;;;5.80;;
7324;SDS011;3703;48.016;7.802;2023-06-26T07:44:06;8.07;;;5.50;;
7324;SDS011;3703;48.016;7.802;2023-06-26T07:46:33;6.40;;;5.10;;
7324;SDS011;3703;48.016;7.802;2023-06-26T07:49:00;6.90;;;5.70;;
7324;SDS011;3703;48.016;7.802;2023-06-26T07:51:27;7.40;;;5.87;;
7324;SDS011;3703;48.016;7.802;2023-06-26T07:53:54;7.60;;;5.60;;
7324;SDS011;3703;48.016;7.802;2023-06-26T07:56:21;6.80;;;5.60;;
7324;SDS011;3703;48.016;7.802;2023-06-26T07:58:50;7.83;;;5.90;;
7324;SDS011;3703;48.016;7.802;2023-06-26T08:01:17;6.53;;;5.83;;
7324;SDS011;3703;48.016;7.802;2023-06-26T08:03:45;7.47;;;6.13;;
7324;SDS011;3703;48.016;7.802;2023-06-26T08:06:12;6.03;;;5.43;;
7324;SDS011;3703;48.016;7.802;2023-06-26T08:08:39;6.57;;;5.53;;
7324;SDS011;3703;48.016;7.802;2023-06-26T08:11:07;6.97;;;6.10;;
7324;SDS011;3703;48.016;7.802;2023-06-26T08:13:34;7.07;;;5.97;;
7324;SDS011;3703;48.016;7.802;2023-06-26T08:16:03;8.53;;;5.70;;
7324;SDS011;3703;48.016;7.802;2023-06-26T08:18:30;11.07;;;5.80;;
7324;SDS011;3703;48.016;7.802;2023-06-26T08:20:57;7.07;;;6.00;;
7324;SDS011;3703;48.016;7.802;2023-06-26T08:23:24;7.17;;;5.80;;
7324;SDS011;3703;48.016;7.802;2023-06-26T08:25:52;8.07;;;6.10;;
7324;SDS011;3703;48.016;7.802;2023-06-26T08:28:19;7.43;;;6.13;;
7324;SDS011;3703;48.016;7.802;2023-06-26T08:30:46;7.53;;;6.10;;
7324;SDS011;3703;48.016;7.802;2023-06-26T08:33:14;8.87;;;6.07;;
7324;SDS011;3703;48.016;7.802;2023-06-26T08:35:42;9.43;;;6.53;;
7324;SDS011;3703;48.016;7.802;2023-06-26T08:38:09;8.80;;;6.10;;
7324;SDS011;3703;48.016;7.802;2023-06-26T08:40:36;7.93;;;5.93;;
7324;SDS011;3703;48.016;7.802;2023-06-26T08:43:03;8.83;;;6.83;;
7324;SDS011;3703;48.016;7.802;2023-06-26T08:45:31;7.73;;;6.30;;
7324;SDS011;3703;48.016;7.802;2023-06-26T08:47:59;14.47;;;6.70;;
7324;SDS011;3703;48.016;7.802;2023-06-26T08:50:30;9.87;;;6.27;;
7324;SDS011;3703;48.016;7.802;2023-06-26T08:53:03;7.83;;;6.50;;
7324;SDS011;3703;48.016;7.802;2023-06-26T08:55:34;9.47;;;5.67;;
7324;SDS011;3703;48.016;7.802;2023-06-26T08:58:04;11.13;;;6.90;;
7324;SDS011;3703;48.016;7.802;2023-06-26T09:00:32;8.50;;;6.60;;
7324;SDS011;3703;48.016;7.802;2023-06-26T09:03:00;8.60;;;6.90;;
7324;SDS011;3703;48.016;7.802;2023-06-26T09:05:31;8.37;;;6.50;;
7324;SDS011;3703;48.016;7.802;2023-06-26T09:07:59;9.67;;;6.47;;
7324;SDS011;3703;48.016;7.802;2023-06-26T09:10:26;7.60;;;6.83;;
7324;SDS011;3703;48.016;7.802;2023-06-26T09:12:54;8.53;;;6.57;;
7324;SDS011;3703;48.016;7.802;2023-06-26T09:15:23;8.50;;;6.17;;
7324;SDS011;3703;48.016;7.802;2023-06-26T09:17:50;8.93;;;6.33;;
7324;SDS011;3703;48.016;7.802;2023-06-26T09:20:24;7.30;;;6.50;;
7324;SDS011;3703;48.016;7.802;2023-06-26T09:22:57;8.50;;;6.70;;
7324;SDS011;3703;48.016;7.802;2023-06-26T09:25:24;7.53;;;6.73;;
7324;SDS011;3703;48.016;7.802;2023-06-26T09:27:54;9.00;;;7.13;;
7324;SDS011;3703;48.016;7.802;2023-06-26T09:30:21;8.70;;;7.17;;
7324;SDS011;3703;48.016;7.802;2023-06-26T09:32:49;9.13;;;6.67;;
7324;SDS011;3703;48.016;7.802;2023-06-26T09:35:16;8.10;;;6.50;;
7324;SDS011;3703;48.016;7.802;2023-06-26T09:37:44;7.40;;;6.50;;
7324;SDS011;3703;48.016;7.802;2023-06-26T09:40:13;8.23;;;7.10;;
7324;SDS011;3703;48.016;7.802;2023-06-26T09:42:41;7.40;;;6.43;;
7324;SDS011;3703;48.016;7.802;2023-06-26T09:45:12;8.17;;;7.17;;
7324;SDS011;3703;48.016;7.802;2023-06-26T09:47:45;8.47;;;7.13;;
7324;SDS011;3703;48.016;7.802;2023-06-26T09:50:20;7.70;;;6.90;;
7324;SDS011;3703;48.016;7.802;2023-06-26T09:52:51;8.90;;;7.00;;
7324;SDS011;3703;48.016;7.802;2023-06-26T09:55:20;8.43;;;6.37;;
7324;SDS011;3703;48.016;7.802;2023-06-26T09:57:48;7.90;;;6.57;;
7324;SDS011;3703;48.016;7.802;2023-06-26T10:00:17;9.80;;;6.93;;
7324;SDS011;3703;48.016;7.802;2023-06-26T10:02:45;7.50;;;6.63;;
7324;SDS011;3703;48.016;7.802;2023-06-26T10:05:14;7.57;;;6.70;;
7324;SDS011;3703;48.016;7.802;2023-06-26T10:07:42;8.00;;;6.93;;
7324;SDS011;3703;48.016;7.802;2023-06-26T10:10:09;8.30;;;7.47;;
7324;SDS011;3703;48.016;7.802;2023-06-26T10:12:39;8.70;;;7.17;;
7324;SDS011;3703;48.016;7.802;2023-06-26T10:15:06;9.37;;;7.20;;
7324;SDS011;3703;48.016;7.802;2023-06-26T10:17:39;8.67;;;7.30;;
7324;SDS011;3703;48.016;7.802;2023-06-26T10:20:10;9.93;;;7.00;;
7324;SDS011;3703;48.016;7.802;2023-06-26T10:22:39;11.90;;;6.83;;
7324;SDS011;3703;48.016;7.802;2023-06-26T10:25:10;7.83;;;7.00;;
7324;SDS011;3703;48.016;7.802;2023-06-26T10:27:46;10.07;;;6.90;;
7324;SDS011;3703;48.016;7.802;2023-06-26T10:30:19;8.87;;;7.00;;
7324;SDS011;3703;48.016;7.802;2023-06-26T10:32:51;8.90;;;6.93;;
7324;SDS011;3703;48.016;7.802;2023-06-26T10:35:18;7.50;;;5.90;;
7324;SDS011;3703;48.016;7.802;2023-06-26T10:37:47;8.87;;;6.57;;
7324;SDS011;3703;48.016;7.802;2023-06-26T10:40:20;10.37;;;6.77;;
7324;SDS011;3703;48.016;7.802;2023-06-26T10:42:52;9.27;;;6.60;;
7324;SDS011;3703;48.016;7.802;2023-06-26T10:45:33;7.20;;;6.50;;
7324;SDS011;3703;48.016;7.802;2023-06-26T10:48:01;7.53;;;6.67;;
7324;SDS011;3703;48.016;7.802;2023-06-26T10:50:30;10.17;;;6.63;;
7324;SDS011;3703;48.016;7.802;2023-06-26T10:53:10;10.93;;;7.10;;
7324;SDS011;3703;48.016;7.802;2023-06-26T10:55:43;9.73;;;6.63;;
7324;SDS011;3703;48.016;7.802;2023-06-26T10:58:30;6.97;;;6.27;;
7324;SDS011;3703;48.016;7.802;2023-06-26T11:01:16;13.70;;;6.97;;
7324;SDS011;3703;48.016;7.802;2023-06-26T11:03:46;10.57;;;7.20;;
7324;SDS011;3703;48.016;7.802;2023-06-26T11:06:17;7.63;;;6.73;;
7324;SDS011;3703;48.016;7.802;2023-06-26T11:08:46;10.33;;;7.40;;
7324;SDS011;3703;48.016;7.802;2023-06-26T11:11:15;8.90;;;6.70;;
7324;SDS011;3703;48.016;7.802;2023-06-26T11:13:44;8.20;;;6.27;;
7324;SDS011;3703;48.016;7.802;2023-06-26T11:16:13;8.57;;;7.03;;
7324;SDS011;3703;48.016;7.802;2023-06-26T11:18:41;9.70;;;6.60;;
7324;SDS011;3703;48.016;7.802;2023-06-26T11:21:09;8.20;;;7.27;;
7324;SDS011;3703;48.016;7.802;2023-06-26T11:23:40;9.07;;;7.30;;
7324;SDS011;3703;48.016;7.802;2023-06-26T11:26:14;9.53;;;7.30;;
7324;SDS011;3703;48.016;7.802;2023-06-26T11:28:51;9.93;;;7.80;;
7324;SDS011;3703;48.016;7.802;2023-06-26T11:31:26;8.73;;;6.70;;
7324;SDS011;3703;48.016;7.802;2023-06-26T11:33:56;9.50;;;7.93;;
7324;SDS011;3703;48.016;7.802;2023-06-26T11:36:24;15.37;;;7.87;;
7324;SDS011;3703;48.016;7.802;2023-06-26T11:38:55;8.97;;;7.63;;
7324;SDS011;3703;48.016;7.802;2023-06-26T11:41:23;10.67;;;7.33;;
7324;SDS011;3703;48.016;7.802;2023-06-26T11:43:54;7.50;;;6.60;;
7324;SDS011;3703;48.016;7.802;2023-06-26T11:46:22;8.10;;;6.03;;
7324;SDS011;3703;48.016;7.802;2023-06-26T11:48:49;6.50;;;5.77;;
7324;SDS011;3703;48.016;7.802;2023-06-26T11:51:17;7.80;;;6.30;;
7324;SDS011;3703;48.016;7.802;2023-06-26T11:53:45;6.80;;;5.63;;
7324;SDS011;3703;48.016;7.802;2023-06-26T11:56:14;7.63;;;6.10;;
7324;SDS011;3703;48.016;7.802;2023-06-26T11:58:59;8.50;;;6.43;;
7324;SDS011;3703;48.016;7.802;2023-06-26T12:01:31;8.27;;;5.90;;
7324;SDS011;3703;48.016;7.802;2023-06-26T12:04:01;8.47;;;5.97;;
7324;SDS011;3703;48.016;7.802;2023-06-26T12:06:30;6.67;;;5.57;;
7324;SDS011;3703;48.016;7.802;2023-06-26T12:09:00;10.40;;;6.23;;
7324;SDS011;3703;48.016;7.802;2023-06-26T12:11:30;6.97;;;5.90;;
7324;SDS011;3703;48.016;7.802;2023-06-26T12:13:59;6.73;;;5.40;;
7324;SDS011;3703;48.016;7.802;2023-06-26T12:16:28;7.13;;;5.70;;
7324;SDS011;3703;48.016;7.802;2023-06-26T12:18:58;7.37;;;5.40;;
7324;SDS011;3703;48.016;7.802;2023-06-26T12:21:45;7.83;;;6.00;;
7324;SDS011;3703;48.016;7.802;2023-06-26T12:24:18;9.17;;;6.13;;
7324;SDS011;3703;48.016;7.802;2023-06-26T12:26:49;8.77;;;6.00;;
7324;SDS011;3703;48.016;7.802;2023-06-26T12:29:28;7.37;;;5.23;;
7324;SDS011;3703;48.016;7.802;2023-06-26T12:31:58;7.07;;;5.43;;
7324;SDS011;3703;48.016;7.802;2023-06-26T12:34:27;7.03;;;5.00;;
7324;SDS011;3703;48.016;7.802;2023-06-26T12:37:00;6.47;;;5.40;;
7324;SDS011;3703;48.016;7.802;2023-06-26T12:39:29;7.77;;;5.33;;
7324;SDS011;3703;48.016;7.802;2023-06-26T12:41:57;7.20;;;5.10;;
7324;SDS011;3703;48.016;7.802;2023-06-26T12:44:29;6.90;;;5.33;;
7324;SDS011;3703;48.016;7.802;2023-06-26T12:46:59;5.93;;;5.13;;
7324;SDS011;3703;48.016;7.802;2023-06-26T12:49:30;6.50;;;4.57;;
7324;SDS011;3703;48.016;7.802;2023-06-26T12:51:58;8.03;;;5.20;;
7324;SDS011;3703;48.016;7.802;2023-06-26T12:54:27;9.50;;;5.23;;
7324;SDS011;3703;48.016;7.802;2023-06-26T12:56:54;8.80;;;4.63;;
7324;SDS011;3703;48.016;7.802;2023-06-26T12:59:22;7.83;;;4.77;;
7324;SDS011;3703;48.016;7.802;2023-06-26T13:01:51;5.63;;;4.77;;
7324;SDS011;3703;48.016;7.802;2023-06-26T13:04:18;6.60;;;5.50;;
7324;SDS011;3703;48.016;7.802;2023-06-26T13:06:45;6.57;;;4.60;;
7324;SDS011;3703;48.016;7.802;2023-06-26T13:09:12;5.23;;;4.47;;
7324;SDS011;3703;48.016;7.802;2023-06-26T13:11:40;4.80;;;4.30;;
7324;SDS011;3703;48.016;7.802;2023-06-26T13:14:07;7.10;;;4.17;;
7324;SDS011;3703;48.016;7.802;2023-06-26T13:16:35;6.00;;;4.40;;
7324;SDS011;3703;48.016;7.802;2023-06-26T13:19:03;5.40;;;4.50;;
7324;SDS011;3703;48.016;7.802;2023-06-26T13:21:31;4.70;;;4.13;;
7324;SDS011;3703;48.016;7.802;2023-06-26T13:23:58;6.50;;;4.27;;
7324;SDS011;3703;48.016;7.802;2023-06-26T13:26:26;4.37;;;3.80;;
7324;SDS011;3703;48.016;7.802;2023-06-26T13:28:54;5.67;;;4.17;;
7324;SDS011;3703;48.016;7.802;2023-06-26T13:31:21;5.70;;;4.50;;
7324;SDS011;3703;48.016;7.802;2023-06-26T13:33:49;6.00;;;4.30;;
7324;SDS011;3703;48.016;7.802;2023-06-26T13:36:18;6.40;;;4.40;;
7324;SDS011;3703;48.016;7.802;2023-06-26T13:38:47;7.00;;;3.57;;
7324;SDS011;3703;48.016;7.802;2023-06-26T13:41:20;4.90;;;4.17;;
7324;SDS011;3703;48.016;7.802;2023-06-26T13:43:48;4.73;;;4.10;;
7324;SDS011;3703;48.016;7.802;2023-06-26T13:46:15;5.63;;;4.23;;
7324;SDS011;3703;48.016;7.802;2023-06-26T13:48:43;7.20;;;4.90;;
7324;SDS011;3703;48.016;7.802;2023-06-26T13:51:10;7.00;;;4.10;;
7324;SDS011;3703;48.016;7.802;2023-06-26T13:53:39;4.83;;;4.17;;
7324;SDS011;3703;48.016;7.802;2023-06-26T13:56:06;6.17;;;4.13;;
7324;SDS011;3703;48.016;7.802;2023-06-26T13:58:34;5.37;;;4.20;;
7324;SDS011;3703;48.016;7.802;2023-06-26T14:01:04;6.33;;;4.33;;
7324;SDS011;3703;48.016;7.802;2023-06-26T14:03:32;7.07;;;4.20;;
7324;SDS011;3703;48.016;7.802;2023-06-26T14:05:59;4.03;;;3.63;;
7324;SDS011;3703;48.016;7.802;2023-06-26T14:08:26;4.20;;;3.53;;
7324;SDS011;3703;48.016;7.802;2023-06-26T14:10:55;6.37;;;3.30;;
7324;SDS011;3703;48.016;7.802;2023-06-26T14:13:22;7.53;;;3.63;;
7324;SDS011;3703;48.016;7.802;2023-06-26T14:15:49;3.87;;;3.43;;
7324;SDS011;3703;48.016;7.802;2023-06-26T14:18:17;4.13;;;3.07;;
7324;SDS011;3703;48.016;7.802;2023-06-26T14:20:46;3.47;;;3.17;;
7324;SDS011;3703;48.016;7.802;2023-06-26T14:23:13;4.60;;;3.30;;
7324;SDS011;3703;48.016;7.802;2023-06-26T14:25:40;4.93;;;3.20;;
7324;SDS011;3703;48.016;7.802;2023-06-26T14:28:09;3.40;;;3.10;;
7324;SDS011;3703;48.016;7.802;2023-06-26T14:30:36;4.43;;;2.90;;
7324;SDS011;3703;48.016;7.802;2023-06-26T14:33:03;5.57;;;3.13;;
7324;SDS011;3703;48.016;7.802;2023-06-26T14:35:30;3.70;;;3.07;;
7324;SDS011;3703;48.016;7.802;2023-06-26T14:37:57;4.73;;;3.20;;
7324;SDS011;3703;48.016;7.802;2023-06-26T14:40:24;4.53;;;3.37;;
7324;SDS011;3703;48.016;7.802;2023-06-26T14:42:51;3.97;;;2.97;;
7324;SDS011;3703;48.016;7.802;2023-06-26T14:45:20;3.33;;;3.00;;
7324;SDS011;3703;48.016;7.802;2023-06-26T14:47:47;3.97;;;2.90;;
7324;SDS011;3703;48.016;7.802;2023-06-26T14:50:15;4.80;;;3.40;;
7324;SDS011;3703;48.016;7.802;2023-06-26T14:52:42;4.43;;;3.47;;
7324;SDS011;3703;48.016;7.802;2023-06-26T14:55:09;5.10;;;3.47;;
7324;SDS011;3703;48.016;7.802;2023-06-26T14:57:36;6.93;;;3.63;;
7324;SDS011;3703;48.016;7.802;2023-06-26T15:00:04;6.17;;;3.27;;
7324;SDS011;3703;48.016;7.802;2023-06-26T15:02:34;5.20;;;3.53;;
7324;SDS011;3703;48.016;7.802;2023-06-26T15:05:02;4.57;;;3.70;;
7324;SDS011;3703;48.016;7.802;2023-06-26T15:07:29;5.43;;;3.70;;
7324;SDS011;3703;48.016;7.802;2023-06-26T15:09:57;4.50;;;3.30;;
7324;SDS011;3703;48.016;7.802;2023-06-26T15:12:24;5.40;;;3.77;;
7324;SDS011;3703;48.016;7.802;2023-06-26T15:14:52;4.40;;;3.43;;
7324;SDS011;3703;48.016;7.802;2023-06-26T15:17:19;5.00;;;3.83;;
7324;SDS011;3703;48.016;7.802;2023-06-26T15:19:48;4.87;;;4.00;;
7324;SDS011;3703;48.016;7.802;2023-06-26T15:24:44;6.27;;;4.00;;
7324;SDS011;3703;48.016;7.802;2023-06-26T15:27:12;7.53;;;4.00;;